createdAt,value
2022-10-18T00:01:27.648Z,8.65
2022-10-18T00:03:56.204Z,8.53
2022-10-18T00:06:27.131Z,8.47
2022-10-18T00:08:55.657Z,8.50
2022-10-18T00:11:24.624Z,8.47
2022-10-18T00:13:58.116Z,8.48
2022-10-18T00:16:27.191Z,8.43
2022-10-18T00:18:56.031Z,8.38
2022-10-18T00:21:27.208Z,8.39
2022-10-18T00:23:55.829Z,8.45
2022-10-18T00:26:28.842Z,8.35
2022-10-18T00:29:02.643Z,8.27
2022-10-18T00:31:34.300Z,8.18
2022-10-18T00:34:06.223Z,8.15
2022-10-18T00:36:36.090Z,8.12
2022-10-18T00:39:07.336Z,8.13
2022-10-18T00:41:39.311Z,8.14
2022-10-18T00:44:47.567Z,8.10
2022-10-18T00:47:18.608Z,8.03
2022-10-18T00:49:53.743Z,7.92
2022-10-18T00:52:28.464Z,7.96
2022-10-18T00:54:59.342Z,7.96
2022-10-18T00:57:29.842Z,7.97
2022-10-18T01:00:00.520Z,7.96
2022-10-18T01:02:30.752Z,7.90
2022-10-18T01:05:01.096Z,7.82
2022-10-18T01:07:50.805Z,7.69
2022-10-18T01:10:29.139Z,7.57
2022-10-18T01:13:16.892Z,7.52
2022-10-18T01:15:58.213Z,7.44
2022-10-18T01:18:34.465Z,7.47
2022-10-18T01:21:15.481Z,7.50
2022-10-18T01:24:24.024Z,7.56
2022-10-18T01:27:14.967Z,7.54
2022-10-18T01:29:55.271Z,7.54
2022-10-18T01:32:29.583Z,7.57
2022-10-18T01:35:04.885Z,7.56
2022-10-18T01:37:35.006Z,7.50
2022-10-18T01:40:08.384Z,7.51
2022-10-18T01:42:36.884Z,7.46
2022-10-18T01:45:10.379Z,7.49
2022-10-18T01:47:42.225Z,7.37
2022-10-18T01:50:11.945Z,7.20
2022-10-18T01:52:50.448Z,7.13
2022-10-18T01:55:21.187Z,7.18
2022-10-18T01:58:01.313Z,7.21
2022-10-18T02:00:37.905Z,7.17
2022-10-18T02:03:19.129Z,7.21
2022-10-18T02:05:53.476Z,7.29
2022-10-18T02:08:36.477Z,7.34
2022-10-18T02:11:07.768Z,7.42
2022-10-18T02:13:41.174Z,7.37
2022-10-18T02:16:15.110Z,7.38
2022-10-18T02:18:51.992Z,7.34
2022-10-18T02:21:22.612Z,7.26
2022-10-18T02:23:53.862Z,7.25
2022-10-18T02:26:22.709Z,7.28
2022-10-18T02:28:51.400Z,7.30
2022-10-18T02:31:24.388Z,7.31
2022-10-18T02:34:00.182Z,7.26
2022-10-18T02:36:35.169Z,7.26
2022-10-18T02:39:15.462Z,7.18
2022-10-18T02:41:45.145Z,7.10
2022-10-18T02:44:13.621Z,7.18
2022-10-18T02:46:44.286Z,7.19
2022-10-18T02:49:15.193Z,6.96
2022-10-18T02:52:09.510Z,6.90
2022-10-18T02:54:39.108Z,6.98
2022-10-18T02:57:16.497Z,6.91
2022-10-18T02:59:44.962Z,6.84
2022-10-18T03:02:19.303Z,6.90
2022-10-18T03:04:50.887Z,6.93
2022-10-18T03:07:19.806Z,6.99
2022-10-18T03:09:50.376Z,7.02
2022-10-18T03:12:19.290Z,6.98
2022-10-18T03:14:56.031Z,6.96
2022-10-18T03:17:25.639Z,6.88
2022-10-18T03:19:56.205Z,6.81
2022-10-18T03:22:25.507Z,6.82
2022-10-18T03:24:55.739Z,6.67
2022-10-18T03:27:26.489Z,6.49
2022-10-18T03:30:01.863Z,6.61
2022-10-18T03:32:30.594Z,6.70
2022-10-18T03:35:01.724Z,6.72
2022-10-18T03:37:32.418Z,6.72
2022-10-18T03:40:04.056Z,6.72
2022-10-18T03:42:42.675Z,6.70
2022-10-18T03:45:11.662Z,6.71
2022-10-18T03:47:41.975Z,6.69
2022-10-18T03:50:13.158Z,6.71
2022-10-18T03:52:41.604Z,6.67
2022-10-18T03:55:11.439Z,6.48
2022-10-18T03:57:40.008Z,6.46
2022-10-18T04:00:09.999Z,6.19
2022-10-18T04:02:41.336Z,5.97
2022-10-18T04:05:27.004Z,5.94
2022-10-18T04:07:55.737Z,6.10
2022-10-18T04:10:30.793Z,6.22
2022-10-18T04:12:59.595Z,6.25
2022-10-18T04:15:28.735Z,6.28
2022-10-18T04:17:57.240Z,6.38
2022-10-18T04:20:30.298Z,6.47
2022-10-18T04:22:58.974Z,6.46
2022-10-18T04:25:28.890Z,6.45
2022-10-18T04:27:57.824Z,6.48
2022-10-18T04:30:27.434Z,6.46
2022-10-18T04:32:57.331Z,6.47
2022-10-18T04:35:26.502Z,6.47
2022-10-18T04:37:58.016Z,6.47
2022-10-18T04:40:26.587Z,6.45
2022-10-18T04:42:56.412Z,6.47
2022-10-18T04:45:26.068Z,6.45
2022-10-18T04:47:54.822Z,6.42
2022-10-18T04:50:24.924Z,6.38
2022-10-18T04:52:54.103Z,6.36
2022-10-18T04:55:24.030Z,6.33
2022-10-18T04:57:54.703Z,6.28
2022-10-18T05:00:24.874Z,6.24
2022-10-18T05:02:58.130Z,6.28
2022-10-18T05:05:43.225Z,6.29
2022-10-18T05:08:16.245Z,6.29
2022-10-18T05:10:46.391Z,6.22
2022-10-18T05:13:16.902Z,6.17
2022-10-18T05:15:47.453Z,6.16
2022-10-18T05:18:38.701Z,6.15
2022-10-18T05:21:07.443Z,6.17
2022-10-18T05:23:37.108Z,6.15
2022-10-18T05:26:08.940Z,6.15
2022-10-18T05:28:40.066Z,6.13
2022-10-18T05:31:11.497Z,6.13
2022-10-18T05:33:40.981Z,6.10
2022-10-18T05:36:10.095Z,6.08
2022-10-18T05:38:42.409Z,6.08
2022-10-18T05:41:17.042Z,6.10
2022-10-18T05:43:45.622Z,6.11
2022-10-18T05:46:15.711Z,6.12
2022-10-18T05:48:45.653Z,6.13
2022-10-18T05:51:14.505Z,6.11
2022-10-18T05:53:44.570Z,6.09
2022-10-18T05:56:14.629Z,6.09
2022-10-18T05:58:49.008Z,6.15
2022-10-18T06:01:19.929Z,6.09
2022-10-18T06:03:52.314Z,6.07
2022-10-18T06:06:22.724Z,6.05
2022-10-18T06:08:52.097Z,6.04
2022-10-18T06:11:23.342Z,6.04
2022-10-18T06:13:55.054Z,6.06
2022-10-18T06:16:27.308Z,6.06
2022-10-18T06:19:02.478Z,6.03
2022-10-18T06:21:35.114Z,6.01
2022-10-18T06:24:04.847Z,6.03
2022-10-18T06:26:34.825Z,6.01
2022-10-18T06:29:06.042Z,6.06
2022-10-18T06:31:52.268Z,6.07
2022-10-18T06:34:28.944Z,6.13
2022-10-18T06:37:00.456Z,6.15
2022-10-18T06:39:37.211Z,6.16
2022-10-18T06:42:13.834Z,6.20
2022-10-18T06:44:44.703Z,6.22
2022-10-18T06:47:13.870Z,6.30
2022-10-18T06:49:48.246Z,6.42
2022-10-18T06:52:20.885Z,6.48
2022-10-18T06:54:49.576Z,6.55
2022-10-18T06:57:21.864Z,6.60
2022-10-18T06:59:54.621Z,6.65
2022-10-18T07:02:24.189Z,6.75
2022-10-18T07:04:55.270Z,6.75
2022-10-18T07:07:23.559Z,6.76
2022-10-18T07:09:51.898Z,6.75
2022-10-18T07:12:24.031Z,6.79
2022-10-18T07:14:55.228Z,6.82
2022-10-18T07:17:25.106Z,6.86
2022-10-18T07:19:54.607Z,6.90
2022-10-18T07:22:27.013Z,6.99
2022-10-18T07:24:59.163Z,7.01
2022-10-18T07:27:31.014Z,7.09
2022-10-18T07:30:07.362Z,7.09
2022-10-18T07:32:36.074Z,7.09
2022-10-18T07:35:05.437Z,7.14
2022-10-18T07:37:36.390Z,7.24
2022-10-18T07:40:05.873Z,7.33
2022-10-18T07:42:37.186Z,7.41
2022-10-18T07:45:06.625Z,7.58
2022-10-18T07:47:35.426Z,7.79
2022-10-18T07:50:04.163Z,7.82
2022-10-18T07:52:33.012Z,7.85
2022-10-18T07:55:01.596Z,7.89
2022-10-18T07:57:30.328Z,7.98
2022-10-18T08:00:00.706Z,8.06
2022-10-18T08:02:29.579Z,8.12
2022-10-18T08:04:59.551Z,8.31
2022-10-18T08:07:28.702Z,8.51
2022-10-18T08:09:57.269Z,8.62
2022-10-18T08:12:26.315Z,8.70
2022-10-18T08:18:36.919Z,8.96
2022-10-18T12:48:54.917Z,15.81
2022-10-18T12:51:26.227Z,15.64
2022-10-18T12:54:20.988Z,15.94
2022-10-18T12:57:10.782Z,15.83
2022-10-18T12:59:46.009Z,15.60
2022-10-18T13:03:10.468Z,15.43
2022-10-18T13:06:14.005Z,15.58
2022-10-18T13:08:48.757Z,15.49
2022-10-18T13:11:36.326Z,15.56
2022-10-18T13:14:35.807Z,15.63
2022-10-18T13:17:54.941Z,15.57
2022-10-18T13:21:17.098Z,15.24
2022-10-18T13:24:07.598Z,15.07
2022-10-18T13:30:50.530Z,14.77
2022-10-18T13:34:01.042Z,14.73
2022-10-18T13:37:22.240Z,14.77
2022-10-18T13:40:53.793Z,14.70
2022-10-18T13:45:06.866Z,14.60
2022-10-18T13:48:24.884Z,14.72
2022-10-18T13:55:11.194Z,14.45
2022-10-18T13:59:13.164Z,14.38
2022-10-18T14:02:50.938Z,14.46
2022-10-18T14:06:41.100Z,14.52
2022-10-18T14:09:45.558Z,15.09
2022-10-18T14:19:58.016Z,16.05
2022-10-18T14:23:33.336Z,17.11
2022-10-18T14:33:27.368Z,16.43
2022-10-18T14:36:11.546Z,16.05
2022-10-18T14:38:52.167Z,16.96
2022-10-18T14:41:24.414Z,16.46
2022-10-18T14:43:54.775Z,15.71
2022-10-18T14:46:29.118Z,15.65
2022-10-18T14:49:03.200Z,16.60
2022-10-18T14:51:36.792Z,16.60
2022-10-18T14:54:07.524Z,16.44
2022-10-18T14:56:40.304Z,15.80
2022-10-18T14:59:17.774Z,15.34
2022-10-18T15:02:01.808Z,15.42
2022-10-18T15:04:33.325Z,15.79
2022-10-18T15:07:05.036Z,15.49
2022-10-18T15:09:36.677Z,15.06
2022-10-18T15:12:08.684Z,14.75
2022-10-18T15:14:38.300Z,14.67
2022-10-18T15:17:15.593Z,14.78
2022-10-18T15:19:59.336Z,14.67
2022-10-18T15:22:33.157Z,14.61
2022-10-18T15:25:16.561Z,14.43
2022-10-18T15:27:48.761Z,14.34
2022-10-18T15:30:21.515Z,14.37
2022-10-18T15:32:52.823Z,14.60
2022-10-18T15:35:27.777Z,14.63
2022-10-18T15:37:58.721Z,14.80
2022-10-18T15:40:43.490Z,14.83
2022-10-18T15:43:40.969Z,14.70
2022-10-18T15:46:33.351Z,14.94
2022-10-18T15:49:43.205Z,15.25
2022-10-18T15:52:38.546Z,15.93
2022-10-18T15:55:48.582Z,15.97
2022-10-18T15:58:24.026Z,17.30
2022-10-18T16:00:54.511Z,16.86
2022-10-18T16:03:24.830Z,15.80
2022-10-18T16:05:57.576Z,15.09
2022-10-18T16:08:31.178Z,14.60
2022-10-18T16:11:01.724Z,14.44
2022-10-18T16:13:30.206Z,14.41
2022-10-18T16:15:59.680Z,14.19
2022-10-18T16:18:30.173Z,14.13
2022-10-18T16:20:58.880Z,14.09
2022-10-18T16:23:29.765Z,14.05
2022-10-18T16:25:58.875Z,13.97
2022-10-18T16:28:32.536Z,13.80
2022-10-18T16:31:04.606Z,13.66
2022-10-18T16:33:33.299Z,13.70
2022-10-18T16:36:04.972Z,13.60
2022-10-18T16:38:36.660Z,13.63
2022-10-18T16:41:06.986Z,13.73
2022-10-18T16:43:37.262Z,13.61
2022-10-18T16:46:07.779Z,13.66
2022-10-18T16:48:39.716Z,13.65
2022-10-18T16:51:08.793Z,13.61
2022-10-18T16:53:45.115Z,13.60
2022-10-18T16:56:18.629Z,13.57
2022-10-18T16:58:47.742Z,13.57
2022-10-18T17:01:33.899Z,13.53
2022-10-18T17:04:24.529Z,13.43
2022-10-18T17:06:55.679Z,13.24
2022-10-18T17:09:36.002Z,13.24
2022-10-18T17:12:13.723Z,13.21
2022-10-18T17:14:59.896Z,13.12
2022-10-18T17:18:18.102Z,13.07
2022-10-18T17:20:57.522Z,12.96
2022-10-18T17:24:08.683Z,12.89
2022-10-18T17:27:20.202Z,12.85
2022-10-18T17:29:56.120Z,12.77
2022-10-18T17:32:27.542Z,12.73
2022-10-18T17:35:17.412Z,12.70
2022-10-18T17:37:53.924Z,12.69
2022-10-18T17:40:24.322Z,12.68
2022-10-18T17:43:13.990Z,12.66
2022-10-18T17:45:49.485Z,12.60
2022-10-18T17:48:18.055Z,12.62
2022-10-18T17:50:46.727Z,12.58
2022-10-18T17:53:22.567Z,12.53
2022-10-18T17:55:51.108Z,12.48
2022-10-18T17:58:29.488Z,12.45
2022-10-18T18:00:59.864Z,12.45
2022-10-18T18:03:34.318Z,12.47
2022-10-18T18:06:20.499Z,12.49
2022-10-18T18:08:51.871Z,12.43
2022-10-18T18:11:27.186Z,12.44
2022-10-18T18:13:59.628Z,12.43
2022-10-18T19:38:00.103Z,12.59
2022-10-18T19:58:53.207Z,12.62
2022-10-18T20:06:40.068Z,12.65
2022-10-18T20:09:13.440Z,12.67
2022-10-18T20:11:45.066Z,12.68
2022-10-18T20:14:15.432Z,12.69
2022-10-18T20:16:44.773Z,12.73
2022-10-18T20:19:13.258Z,12.72
2022-10-18T20:21:42.254Z,12.72
2022-10-18T20:24:13.058Z,12.70
2022-10-18T20:26:43.681Z,12.70
2022-10-18T20:29:15.278Z,12.72
2022-10-18T20:31:44.358Z,12.72
2022-10-18T20:34:14.028Z,12.76
2022-10-18T20:36:43.184Z,12.78
2022-10-18T20:39:11.611Z,12.80
2022-10-18T20:41:42.959Z,12.78
2022-10-18T20:44:17.109Z,12.79
2022-10-18T20:46:47.196Z,12.79
2022-10-18T20:49:18.026Z,12.80
2022-10-18T20:51:46.829Z,12.80
2022-10-18T20:54:15.346Z,12.82
2022-10-18T20:56:45.582Z,12.82
2022-10-18T20:59:17.829Z,12.83
2022-10-18T21:01:47.849Z,12.86
2022-10-18T21:04:18.329Z,12.89
2022-10-18T21:06:47.085Z,12.89
2022-10-18T21:09:17.769Z,12.88
2022-10-18T21:11:51.587Z,12.90
2022-10-18T21:14:23.481Z,12.89
2022-10-18T21:16:54.151Z,12.88
2022-10-18T21:19:24.260Z,12.86
2022-10-18T21:21:55.736Z,12.83
2022-10-18T21:24:25.908Z,12.86
2022-10-18T21:26:54.929Z,12.82
2022-10-18T21:29:27.247Z,12.85
2022-10-18T21:31:58.499Z,12.88
2022-10-18T21:34:27.499Z,12.89
2022-10-18T21:36:56.268Z,12.85
2022-10-18T21:39:25.875Z,12.86
2022-10-18T21:41:55.029Z,12.88
2022-10-18T21:44:26.806Z,12.92
2022-10-18T21:46:55.338Z,12.87
2022-10-18T21:49:25.504Z,12.85
2022-10-18T21:51:53.822Z,12.83
2022-10-18T21:54:22.382Z,12.84
2022-10-18T21:56:51.433Z,12.83
2022-10-18T21:59:20.180Z,12.83
2022-10-18T22:01:50.748Z,12.82
2022-10-18T22:04:21.562Z,12.86
2022-10-18T22:07:14.966Z,12.83
2022-10-18T22:09:43.486Z,12.84
2022-10-18T22:12:11.996Z,12.82
2022-10-18T22:14:42.295Z,12.84
2022-10-18T22:17:12.234Z,12.82
2022-10-18T22:19:40.847Z,12.79
2022-10-18T22:22:09.585Z,12.83
2022-10-18T22:24:39.557Z,12.82
2022-10-18T22:27:09.294Z,12.82
2022-10-18T22:29:37.670Z,12.82
2022-10-18T22:32:06.462Z,12.82
2022-10-18T22:34:40.083Z,12.79
2022-10-18T22:37:08.601Z,12.76
2022-10-18T22:39:38.306Z,12.76
2022-10-18T22:42:07.143Z,12.76
2022-10-18T22:44:36.126Z,12.75
2022-10-18T22:47:05.410Z,12.73
2022-10-18T22:49:34.005Z,12.73
2022-10-18T22:52:09.745Z,12.77
2022-10-18T22:54:39.557Z,12.76
2022-10-18T22:57:08.423Z,12.76
2022-10-18T22:59:40.970Z,12.76
2022-10-18T23:02:10.905Z,12.77
2022-10-18T23:04:39.563Z,12.78
2022-10-18T23:07:09.347Z,12.77
2022-10-18T23:12:07.681Z,12.78
2022-10-18T23:14:38.991Z,12.80
2022-10-18T23:17:10.676Z,12.81
2022-10-18T23:19:42.022Z,12.81
2022-10-18T23:22:15.180Z,12.82
2022-10-18T23:24:44.739Z,12.82
2022-10-18T23:27:15.394Z,12.83
2022-10-18T23:29:44.089Z,12.85
2022-10-18T23:32:12.743Z,12.87
2022-10-18T23:34:41.873Z,12.89
2022-10-18T23:37:19.349Z,12.89
2022-10-18T23:39:53.865Z,12.90
2022-10-18T23:42:23.542Z,12.90
2022-10-18T23:44:54.448Z,12.98
2022-10-18T23:47:29.194Z,12.93
2022-10-18T23:49:59.635Z,12.94
2022-10-18T23:52:30.104Z,12.93
2022-10-18T23:54:58.791Z,12.94
2022-10-18T23:57:27.165Z,12.94
2022-10-18T23:59:55.737Z,12.96
